Archival Weather

Heathrow

London, United Kingdom (EGLL)

Report from: Tuesday, June 18, 2024 5:50 AM BST
Current time: Monday, July 22, 2024 11:09 AM BST

Current weather – Weather history – Daily summaries
Weather forecast

Temperature13.0°C (55.4°F)
Dew point10.0°C (50.0°F)
Winds 5 kts (2.6 m/s, 5.8 mph) North-Northeast (30°)
Visibility6.2 mi. (10 km)
Clouds Sky clear
Altimeter29.94 in.Hg (1014 mB)
Relative humidity82 %
Density altitude-89 ft. (-27 m)
Remarks Fully automated report
Corrected report
No clouds detected
No significant changes expected in the next two hours
Flight conditions Visual Meteorological Conditions
Raw dataCOR EGLL 180450Z AUTO 03005KT 9999 NCD 13/10 Q1014 NOSIG
An error has occurred. This application may no longer respond until reloaded. Reload 🗙